Terminal Aerodrome Forecast
Issued by NWS

Home | Current Version | Previous Version | Text Only | Print | Product List | Glossary On
Versions: 1 2 3 4 5 6 7 8 9 10 11 12 13 14 15 16 17 18 19 20 21 22 23 24 25 26 27 28
000
FTAK31 PAFA 130538
TAFASC
TAF
PASC 130538Z 1306/1406 06022G28KT 1SM -SN BLSN BKN006 OVC015
     FM131800 06020KT 2SM -SN BLSN BKN006 OVC015
     FM132100 06020G30KT 1/2SM SN BLSN OVC003=

USA.gov is the U.S. government's official web portal to all federal, state and local government web resources and services.